sensor_id;sensor_type;location;lat;lon;timestamp;temperature;humidity
18073;DHT22;9161;47.348;9.648;2023-02-01T00:01:10;2.90;99.90
18073;DHT22;9161;47.348;9.648;2023-02-01T00:06:14;2.80;99.90
18073;DHT22;9161;47.348;9.648;2023-02-01T00:11:16;2.80;99.90
18073;DHT22;9161;47.348;9.648;2023-02-01T00:16:20;2.90;99.90
18073;DHT22;9161;47.348;9.648;2023-02-01T00:21:25;2.70;99.90
18073;DHT22;9161;47.348;9.648;2023-02-01T00:26:31;2.60;99.90
18073;DHT22;9161;47.348;9.648;2023-02-01T00:31:33;2.60;99.90
18073;DHT22;9161;47.348;9.648;2023-02-01T00:36:37;2.60;99.90
18073;DHT22;9161;47.348;9.648;2023-02-01T00:41:39;2.70;99.90
18073;DHT22;9161;47.348;9.648;2023-02-01T00:46:42;2.70;99.90
18073;DHT22;9161;47.348;9.648;2023-02-01T00:51:45;2.80;99.90
18073;DHT22;9161;47.348;9.648;2023-02-01T00:56:47;2.80;99.90
18073;DHT22;9161;47.348;9.648;2023-02-01T01:01:50;2.80;99.90
18073;DHT22;9161;47.348;9.648;2023-02-01T01:06:54;3.00;99.90
18073;DHT22;9161;47.348;9.648;2023-02-01T01:11:56;3.30;99.90
18073;DHT22;9161;47.348;9.648;2023-02-01T01:17:03;3.40;99.90
18073;DHT22;9161;47.348;9.648;2023-02-01T01:22:06;3.60;99.90
18073;DHT22;9161;47.348;9.648;2023-02-01T01:27:08;3.60;99.90
18073;DHT22;9161;47.348;9.648;2023-02-01T01:32:11;3.60;99.90
18073;DHT22;9161;47.348;9.648;2023-02-01T01:37:15;3.60;99.90
18073;DHT22;9161;47.348;9.648;2023-02-01T01:42:17;3.50;99.90
18073;DHT22;9161;47.348;9.648;2023-02-01T01:47:19;3.30;99.90
18073;DHT22;9161;47.348;9.648;2023-02-01T01:52:23;3.00;99.90
18073;DHT22;9161;47.348;9.648;2023-02-01T01:57:27;2.80;99.90
18073;DHT22;9161;47.348;9.648;2023-02-01T02:02:31;2.70;99.90
18073;DHT22;9161;47.348;9.648;2023-02-01T02:07:37;2.60;99.90
18073;DHT22;9161;47.348;9.648;2023-02-01T02:12:45;2.40;99.90
18073;DHT22;9161;47.348;9.648;2023-02-01T02:17:55;2.20;99.90
18073;DHT22;9161;47.348;9.648;2023-02-01T02:34:40;2.10;99.90
18073;DHT22;9161;47.348;9.648;2023-02-01T02:39:53;2.00;99.90
18073;DHT22;9161;47.348;9.648;2023-02-01T02:45:03;2.10;99.90
18073;DHT22;9161;47.348;9.648;2023-02-01T02:50:28;2.10;99.90
18073;DHT22;9161;47.348;9.648;2023-02-01T02:55:50;2.00;99.90
18073;DHT22;9161;47.348;9.648;2023-02-01T03:01:07;1.80;99.90
18073;DHT22;9161;47.348;9.648;2023-02-01T03:06:29;1.70;99.90
18073;DHT22;9161;47.348;9.648;2023-02-01T03:11:35;1.70;99.90
18073;DHT22;9161;47.348;9.648;2023-02-01T03:16:57;1.60;99.90
18073;DHT22;9161;47.348;9.648;2023-02-01T03:22:04;1.50;99.90
18073;DHT22;9161;47.348;9.648;2023-02-01T03:27:13;1.50;99.90
18073;DHT22;9161;47.348;9.648;2023-02-01T03:32:17;1.30;99.90
18073;DHT22;9161;47.348;9.648;2023-02-01T03:37:24;1.20;99.90
18073;DHT22;9161;47.348;9.648;2023-02-01T03:42:30;1.50;99.90
18073;DHT22;9161;47.348;9.648;2023-02-01T03:47:39;2.10;99.90
18073;DHT22;9161;47.348;9.648;2023-02-01T03:52:46;1.90;99.90
18073;DHT22;9161;47.348;9.648;2023-02-01T03:57:53;1.60;99.90
18073;DHT22;9161;47.348;9.648;2023-02-01T04:02:57;1.50;99.90
18073;DHT22;9161;47.348;9.648;2023-02-01T04:08:01;1.50;99.90
18073;DHT22;9161;47.348;9.648;2023-02-01T04:13:05;1.50;99.90
18073;DHT22;9161;47.348;9.648;2023-02-01T04:18:08;1.80;99.90
18073;DHT22;9161;47.348;9.648;2023-02-01T04:23:12;2.00;99.90
18073;DHT22;9161;47.348;9.648;2023-02-01T04:28:16;2.50;99.90
18073;DHT22;9161;47.348;9.648;2023-02-01T04:33:18;2.80;99.90
18073;DHT22;9161;47.348;9.648;2023-02-01T04:38:21;2.90;99.90
18073;DHT22;9161;47.348;9.648;2023-02-01T04:43:24;2.80;99.90
18073;DHT22;9161;47.348;9.648;2023-02-01T04:48:26;2.50;99.90
18073;DHT22;9161;47.348;9.648;2023-02-01T04:53:30;2.40;99.90
18073;DHT22;9161;47.348;9.648;2023-02-01T04:58:32;2.40;99.90
18073;DHT22;9161;47.348;9.648;2023-02-01T05:03:35;2.60;99.90
18073;DHT22;9161;47.348;9.648;2023-02-01T05:08:39;2.70;99.90
18073;DHT22;9161;47.348;9.648;2023-02-01T05:13:41;2.60;99.90
18073;DHT22;9161;47.348;9.648;2023-02-01T05:19:02;2.70;99.90
18073;DHT22;9161;47.348;9.648;2023-02-01T05:24:08;2.70;99.90
18073;DHT22;9161;47.348;9.648;2023-02-01T05:29:15;2.80;99.90
18073;DHT22;9161;47.348;9.648;2023-02-01T05:34:18;2.70;99.90
18073;DHT22;9161;47.348;9.648;2023-02-01T05:39:22;2.60;99.90
18073;DHT22;9161;47.348;9.648;2023-02-01T05:44:24;2.50;99.90
18073;DHT22;9161;47.348;9.648;2023-02-01T05:49:26;2.40;99.90
18073;DHT22;9161;47.348;9.648;2023-02-01T05:54:30;2.40;99.90
18073;DHT22;9161;47.348;9.648;2023-02-01T05:59:32;2.60;99.90
18073;DHT22;9161;47.348;9.648;2023-02-01T06:04:35;2.80;99.90
18073;DHT22;9161;47.348;9.648;2023-02-01T06:09:38;2.80;99.90
18073;DHT22;9161;47.348;9.648;2023-02-01T06:14:40;3.00;99.90
18073;DHT22;9161;47.348;9.648;2023-02-01T06:19:45;2.90;99.90
18073;DHT22;9161;47.348;9.648;2023-02-01T06:24:50;2.90;99.90
18073;DHT22;9161;47.348;9.648;2023-02-01T06:29:52;2.80;99.90
18073;DHT22;9161;47.348;9.648;2023-02-01T06:34:55;2.50;99.90
18073;DHT22;9161;47.348;9.648;2023-02-01T06:40:00;2.30;99.90
18073;DHT22;9161;47.348;9.648;2023-02-01T06:45:02;2.30;99.90
18073;DHT22;9161;47.348;9.648;2023-02-01T06:50:05;2.40;99.90
18073;DHT22;9161;47.348;9.648;2023-02-01T06:55:09;2.20;99.90
18073;DHT22;9161;47.348;9.648;2023-02-01T07:00:13;2.40;99.90
18073;DHT22;9161;47.348;9.648;2023-02-01T07:05:16;2.40;99.90
18073;DHT22;9161;47.348;9.648;2023-02-01T07:10:20;2.50;99.90
18073;DHT22;9161;47.348;9.648;2023-02-01T07:15:23;2.50;99.90
18073;DHT22;9161;47.348;9.648;2023-02-01T07:20:25;2.40;99.90
18073;DHT22;9161;47.348;9.648;2023-02-01T07:25:29;2.20;99.90
18073;DHT22;9161;47.348;9.648;2023-02-01T07:30:31;2.20;99.90
18073;DHT22;9161;47.348;9.648;2023-02-01T07:35:33;2.20;99.90
18073;DHT22;9161;47.348;9.648;2023-02-01T07:40:37;2.40;99.90
18073;DHT22;9161;47.348;9.648;2023-02-01T07:45:40;2.50;99.90
18073;DHT22;9161;47.348;9.648;2023-02-01T07:50:42;2.50;99.90
18073;DHT22;9161;47.348;9.648;2023-02-01T07:55:45;2.40;99.90
18073;DHT22;9161;47.348;9.648;2023-02-01T08:00:48;2.30;99.90
18073;DHT22;9161;47.348;9.648;2023-02-01T08:06:08;2.40;99.90
18073;DHT22;9161;47.348;9.648;2023-02-01T08:11:12;2.30;99.90
18073;DHT22;9161;47.348;9.648;2023-02-01T08:16:16;2.50;99.90
18073;DHT22;9161;47.348;9.648;2023-02-01T08:21:21;2.40;99.90
18073;DHT22;9161;47.348;9.648;2023-02-01T08:26:25;2.30;99.90
18073;DHT22;9161;47.348;9.648;2023-02-01T08:31:29;2.50;99.90
18073;DHT22;9161;47.348;9.648;2023-02-01T08:36:31;2.60;99.90
18073;DHT22;9161;47.348;9.648;2023-02-01T08:41:35;2.60;99.90
18073;DHT22;9161;47.348;9.648;2023-02-01T08:46:37;2.60;99.90
18073;DHT22;9161;47.348;9.648;2023-02-01T08:51:39;2.60;99.90
18073;DHT22;9161;47.348;9.648;2023-02-01T08:56:43;2.60;99.90
18073;DHT22;9161;47.348;9.648;2023-02-01T09:01:45;2.60;99.90
18073;DHT22;9161;47.348;9.648;2023-02-01T09:06:48;2.80;99.90
18073;DHT22;9161;47.348;9.648;2023-02-01T09:11:51;2.50;99.90
18073;DHT22;9161;47.348;9.648;2023-02-01T09:16:53;2.50;99.90
18073;DHT22;9161;47.348;9.648;2023-02-01T09:21:56;2.30;99.90
18073;DHT22;9161;47.348;9.648;2023-02-01T09:26:59;2.60;99.90
18073;DHT22;9161;47.348;9.648;2023-02-01T09:32:02;2.70;99.90
18073;DHT22;9161;47.348;9.648;2023-02-01T09:37:04;2.90;99.90
18073;DHT22;9161;47.348;9.648;2023-02-01T09:42:19;3.00;99.90
18073;DHT22;9161;47.348;9.648;2023-02-01T09:47:24;3.10;99.90
18073;DHT22;9161;47.348;9.648;2023-02-01T09:52:31;3.10;99.90
18073;DHT22;9161;47.348;9.648;2023-02-01T09:57:43;3.10;99.90
18073;DHT22;9161;47.348;9.648;2023-02-01T10:02:48;3.20;99.90
18073;DHT22;9161;47.348;9.648;2023-02-01T10:07:56;3.20;99.90
18073;DHT22;9161;47.348;9.648;2023-02-01T10:13:19;3.20;99.90
18073;DHT22;9161;47.348;9.648;2023-02-01T10:18:47;3.10;99.90
18073;DHT22;9161;47.348;9.648;2023-02-01T10:24:10;3.20;99.90
18073;DHT22;9161;47.348;9.648;2023-02-01T10:29:21;3.30;99.90
18073;DHT22;9161;47.348;9.648;2023-02-01T10:34:27;3.30;99.90
18073;DHT22;9161;47.348;9.648;2023-02-01T10:39:29;3.30;99.90
18073;DHT22;9161;47.348;9.648;2023-02-01T10:44:34;3.40;99.90
18073;DHT22;9161;47.348;9.648;2023-02-01T10:49:42;3.60;99.90
18073;DHT22;9161;47.348;9.648;2023-02-01T10:54:45;3.80;99.90
18073;DHT22;9161;47.348;9.648;2023-02-01T10:59:49;3.70;99.90
18073;DHT22;9161;47.348;9.648;2023-02-01T11:04:59;3.80;99.90
18073;DHT22;9161;47.348;9.648;2023-02-01T11:10:03;3.70;99.90
18073;DHT22;9161;47.348;9.648;2023-02-01T11:15:19;3.90;99.90
18073;DHT22;9161;47.348;9.648;2023-02-01T11:20:35;4.20;99.90
18073;DHT22;9161;47.348;9.648;2023-02-01T11:25:48;4.30;99.90
18073;DHT22;9161;47.348;9.648;2023-02-01T11:30:54;4.20;99.90
18073;DHT22;9161;47.348;9.648;2023-02-01T11:35:58;4.60;99.90
18073;DHT22;9161;47.348;9.648;2023-02-01T11:41:13;4.70;99.90
18073;DHT22;9161;47.348;9.648;2023-02-01T11:46:19;4.80;99.90
18073;DHT22;9161;47.348;9.648;2023-02-01T11:51:42;4.80;99.90
18073;DHT22;9161;47.348;9.648;2023-02-01T11:56:55;4.60;99.90
18073;DHT22;9161;47.348;9.648;2023-02-01T12:02:17;4.90;99.90
18073;DHT22;9161;47.348;9.648;2023-02-01T12:07:24;5.40;99.90
18073;DHT22;9161;47.348;9.648;2023-02-01T12:12:36;5.80;99.90
18073;DHT22;9161;47.348;9.648;2023-02-01T12:18:05;6.00;99.90
18073;DHT22;9161;47.348;9.648;2023-02-01T12:23:21;6.10;99.90
18073;DHT22;9161;47.348;9.648;2023-02-01T12:28:47;6.30;99.90
18073;DHT22;9161;47.348;9.648;2023-02-01T12:34:06;6.30;99.90
18073;DHT22;9161;47.348;9.648;2023-02-01T12:39:19;6.00;99.90
18073;DHT22;9161;47.348;9.648;2023-02-01T12:44:30;6.10;99.90
18073;DHT22;9161;47.348;9.648;2023-02-01T12:49:43;6.00;99.90
18073;DHT22;9161;47.348;9.648;2023-02-01T12:54:49;6.00;99.90
18073;DHT22;9161;47.348;9.648;2023-02-01T12:59:59;6.30;99.90
18073;DHT22;9161;47.348;9.648;2023-02-01T13:05:13;6.30;99.90
18073;DHT22;9161;47.348;9.648;2023-02-01T13:10:22;6.50;99.90
18073;DHT22;9161;47.348;9.648;2023-02-01T13:15:28;6.70;99.90
18073;DHT22;9161;47.348;9.648;2023-02-01T13:20:35;6.70;99.90
18073;DHT22;9161;47.348;9.648;2023-02-01T13:25:46;6.70;99.90
18073;DHT22;9161;47.348;9.648;2023-02-01T13:31:17;6.80;99.90
18073;DHT22;9161;47.348;9.648;2023-02-01T13:36:39;6.70;99.90
18073;DHT22;9161;47.348;9.648;2023-02-01T13:41:52;6.60;99.90
18073;DHT22;9161;47.348;9.648;2023-02-01T13:46:57;6.60;99.90
18073;DHT22;9161;47.348;9.648;2023-02-01T13:52:02;7.40;99.90
18073;DHT22;9161;47.348;9.648;2023-02-01T14:02:47;8.20;99.90
18073;DHT22;9161;47.348;9.648;2023-02-01T14:08:10;8.90;99.90
18073;DHT22;9161;47.348;9.648;2023-02-01T14:13:23;7.40;99.90
18073;DHT22;9161;47.348;9.648;2023-02-01T14:18:58;6.80;99.90
18073;DHT22;9161;47.348;9.648;2023-02-01T14:24:20;6.70;99.90
18073;DHT22;9161;47.348;9.648;2023-02-01T14:29:31;6.70;99.90
18073;DHT22;9161;47.348;9.648;2023-02-01T14:34:37;6.70;99.90
18073;DHT22;9161;47.348;9.648;2023-02-01T14:39:55;6.60;99.90
18073;DHT22;9161;47.348;9.648;2023-02-01T14:50:35;6.40;99.90
18073;DHT22;9161;47.348;9.648;2023-02-01T14:55:43;6.40;99.90
18073;DHT22;9161;47.348;9.648;2023-02-01T15:00:52;6.30;99.90
18073;DHT22;9161;47.348;9.648;2023-02-01T15:05:56;6.20;99.90
18073;DHT22;9161;47.348;9.648;2023-02-01T15:11:04;6.20;99.90
18073;DHT22;9161;47.348;9.648;2023-02-01T15:16:11;6.20;99.90
18073;DHT22;9161;47.348;9.648;2023-02-01T15:21:17;6.20;99.90
18073;DHT22;9161;47.348;9.648;2023-02-01T15:26:32;6.20;99.90
18073;DHT22;9161;47.348;9.648;2023-02-01T15:31:36;6.30;99.90
18073;DHT22;9161;47.348;9.648;2023-02-01T15:36:40;6.40;99.90
18073;DHT22;9161;47.348;9.648;2023-02-01T15:42:11;6.40;99.90
18073;DHT22;9161;47.348;9.648;2023-02-01T15:47:18;6.40;99.90
18073;DHT22;9161;47.348;9.648;2023-02-01T15:52:24;6.30;99.90
18073;DHT22;9161;47.348;9.648;2023-02-01T15:57:33;6.20;99.90
18073;DHT22;9161;47.348;9.648;2023-02-01T16:02:37;6.20;99.90
18073;DHT22;9161;47.348;9.648;2023-02-01T16:07:56;6.20;99.90
18073;DHT22;9161;47.348;9.648;2023-02-01T16:13:06;6.20;99.90
18073;DHT22;9161;47.348;9.648;2023-02-01T16:18:08;6.00;99.90
18073;DHT22;9161;47.348;9.648;2023-02-01T16:23:11;6.00;99.90
18073;DHT22;9161;47.348;9.648;2023-02-01T16:28:21;5.90;99.90
18073;DHT22;9161;47.348;9.648;2023-02-01T16:33:24;5.80;99.90
18073;DHT22;9161;47.348;9.648;2023-02-01T16:38:28;5.70;99.90
18073;DHT22;9161;47.348;9.648;2023-02-01T16:43:32;5.60;99.90
18073;DHT22;9161;47.348;9.648;2023-02-01T16:48:36;5.50;99.90
18073;DHT22;9161;47.348;9.648;2023-02-01T16:53:39;5.40;99.90
18073;DHT22;9161;47.348;9.648;2023-02-01T16:58:55;5.40;99.90
18073;DHT22;9161;47.348;9.648;2023-02-01T17:03:58;5.30;99.90
18073;DHT22;9161;47.348;9.648;2023-02-01T17:09:00;5.40;99.90
18073;DHT22;9161;47.348;9.648;2023-02-01T17:14:15;5.40;99.90
18073;DHT22;9161;47.348;9.648;2023-02-01T17:19:21;5.40;99.90
18073;DHT22;9161;47.348;9.648;2023-02-01T17:24:29;5.40;99.90
18073;DHT22;9161;47.348;9.648;2023-02-01T17:29:50;5.40;99.90
18073;DHT22;9161;47.348;9.648;2023-02-01T17:34:54;5.30;99.90
18073;DHT22;9161;47.348;9.648;2023-02-01T17:39:59;5.30;99.90
18073;DHT22;9161;47.348;9.648;2023-02-01T17:45:18;5.20;99.90
18073;DHT22;9161;47.348;9.648;2023-02-01T17:50:26;5.10;99.90
18073;DHT22;9161;47.348;9.648;2023-02-01T17:55:31;5.20;99.90
18073;DHT22;9161;47.348;9.648;2023-02-01T18:00:36;5.40;99.90
18073;DHT22;9161;47.348;9.648;2023-02-01T18:05:42;5.40;99.90
18073;DHT22;9161;47.348;9.648;2023-02-01T18:10:52;5.50;99.90
18073;DHT22;9161;47.348;9.648;2023-02-01T18:16:00;5.90;99.90
18073;DHT22;9161;47.348;9.648;2023-02-01T18:21:08;5.80;99.90
18073;DHT22;9161;47.348;9.648;2023-02-01T18:26:12;6.00;99.90
18073;DHT22;9161;47.348;9.648;2023-02-01T18:31:23;6.00;99.90
18073;DHT22;9161;47.348;9.648;2023-02-01T18:36:44;5.90;99.90
18073;DHT22;9161;47.348;9.648;2023-02-01T18:41:49;5.70;99.90
18073;DHT22;9161;47.348;9.648;2023-02-01T18:46:57;5.90;99.90
18073;DHT22;9161;47.348;9.648;2023-02-01T18:52:02;5.80;99.90
18073;DHT22;9161;47.348;9.648;2023-02-01T18:57:05;5.90;99.90
18073;DHT22;9161;47.348;9.648;2023-02-01T19:02:14;5.70;99.90
18073;DHT22;9161;47.348;9.648;2023-02-01T19:07:19;5.60;99.90
18073;DHT22;9161;47.348;9.648;2023-02-01T19:12:26;5.50;99.90
18073;DHT22;9161;47.348;9.648;2023-02-01T19:17:31;5.50;99.90
18073;DHT22;9161;47.348;9.648;2023-02-01T19:22:35;5.50;99.90
18073;DHT22;9161;47.348;9.648;2023-02-01T19:27:42;5.60;99.90
18073;DHT22;9161;47.348;9.648;2023-02-01T19:32:50;5.70;99.90
18073;DHT22;9161;47.348;9.648;2023-02-01T19:37:55;5.60;99.90
18073;DHT22;9161;47.348;9.648;2023-02-01T19:43:01;5.60;99.90
18073;DHT22;9161;47.348;9.648;2023-02-01T19:48:06;5.60;99.90
18073;DHT22;9161;47.348;9.648;2023-02-01T19:53:14;5.80;99.90
18073;DHT22;9161;47.348;9.648;2023-02-01T19:58:28;5.80;99.90
18073;DHT22;9161;47.348;9.648;2023-02-01T20:03:35;5.90;99.90
18073;DHT22;9161;47.348;9.648;2023-02-01T20:08:39;6.00;99.90
18073;DHT22;9161;47.348;9.648;2023-02-01T20:13:43;6.00;99.90
18073;DHT22;9161;47.348;9.648;2023-02-01T20:18:49;5.90;99.90
18073;DHT22;9161;47.348;9.648;2023-02-01T20:23:52;5.80;99.90
18073;DHT22;9161;47.348;9.648;2023-02-01T20:28:56;5.70;99.90
18073;DHT22;9161;47.348;9.648;2023-02-01T20:34:03;5.80;99.90
18073;DHT22;9161;47.348;9.648;2023-02-01T20:39:08;5.80;99.90
18073;DHT22;9161;47.348;9.648;2023-02-01T20:44:12;5.70;99.90
18073;DHT22;9161;47.348;9.648;2023-02-01T20:49:19;5.70;99.90
18073;DHT22;9161;47.348;9.648;2023-02-01T20:54:23;5.80;99.90
18073;DHT22;9161;47.348;9.648;2023-02-01T20:59:32;5.80;99.90
18073;DHT22;9161;47.348;9.648;2023-02-01T21:04:38;5.80;99.90
18073;DHT22;9161;47.348;9.648;2023-02-01T21:09:42;5.90;99.90
18073;DHT22;9161;47.348;9.648;2023-02-01T21:14:46;5.80;99.90
18073;DHT22;9161;47.348;9.648;2023-02-01T21:19:51;5.70;99.90
18073;DHT22;9161;47.348;9.648;2023-02-01T21:24:53;5.60;99.90
18073;DHT22;9161;47.348;9.648;2023-02-01T21:29:56;5.40;99.90
18073;DHT22;9161;47.348;9.648;2023-02-01T21:35:01;5.40;99.90
18073;DHT22;9161;47.348;9.648;2023-02-01T21:40:03;5.30;99.90
18073;DHT22;9161;47.348;9.648;2023-02-01T21:45:09;5.30;99.90
18073;DHT22;9161;47.348;9.648;2023-02-01T21:50:17;5.20;99.90
18073;DHT22;9161;47.348;9.648;2023-02-01T21:55:19;5.50;99.90
18073;DHT22;9161;47.348;9.648;2023-02-01T22:00:21;5.50;99.90
18073;DHT22;9161;47.348;9.648;2023-02-01T22:05:50;5.80;99.90
18073;DHT22;9161;47.348;9.648;2023-02-01T22:11:25;5.70;99.90
18073;DHT22;9161;47.348;9.648;2023-02-01T22:16:48;5.50;99.90
18073;DHT22;9161;47.348;9.648;2023-02-01T22:22:26;5.50;99.90
18073;DHT22;9161;47.348;9.648;2023-02-01T22:27:32;5.60;99.90
18073;DHT22;9161;47.348;9.648;2023-02-01T22:33:19;5.40;99.90
18073;DHT22;9161;47.348;9.648;2023-02-01T22:38:23;5.30;99.90
18073;DHT22;9161;47.348;9.648;2023-02-01T22:43:25;5.30;99.90
18073;DHT22;9161;47.348;9.648;2023-02-01T22:48:29;5.70;99.90
18073;DHT22;9161;47.348;9.648;2023-02-01T22:53:33;5.60;99.90
18073;DHT22;9161;47.348;9.648;2023-02-01T22:58:35;5.30;99.90
18073;DHT22;9161;47.348;9.648;2023-02-01T23:03:40;5.20;99.90
18073;DHT22;9161;47.348;9.648;2023-02-01T23:08:45;5.30;99.90
18073;DHT22;9161;47.348;9.648;2023-02-01T23:13:49;5.40;99.90
18073;DHT22;9161;47.348;9.648;2023-02-01T23:18:52;5.60;99.90
18073;DHT22;9161;47.348;9.648;2023-02-01T23:23:58;5.40;99.90
18073;DHT22;9161;47.348;9.648;2023-02-01T23:29:01;5.30;99.90
18073;DHT22;9161;47.348;9.648;2023-02-01T23:34:04;5.30;99.90
18073;DHT22;9161;47.348;9.648;2023-02-01T23:39:07;5.10;99.90
18073;DHT22;9161;47.348;9.648;2023-02-01T23:44:09;5.00;99.90
18073;DHT22;9161;47.348;9.648;2023-02-01T23:49:13;5.00;99.90
18073;DHT22;9161;47.348;9.648;2023-02-01T23:54:17;4.90;99.90
18073;DHT22;9161;47.348;9.648;2023-02-01T23:59:21;5.00;99.90
